Time;durP1;ratioP1;P1;durP2;ratioP2;P2;SDS_P1;SDS_P2;PMS_P1;PMS_P2;Temp;Humidity;BMP_temperature;BMP_pressure;BME280_temperature;BME280_humidity;BME280_pressure;Samples;Min_cycle;Max_cycle;Signal;HPM_P1;HPM_P2
2023/03/12 00:02:15;;;;;;;9.88;9.25;;;;;;;;;;4994477;28;20042;-51
2023/03/12 00:04:40;;;;;;;9.23;8.63;;;;;;;;;;4996029;28;20034;-53
2023/03/12 00:07:07;;;;;;;8.95;8.35;;;;;;;;;;4997566;28;20033;-53
2023/03/12 00:09:37;;;;;;;9.88;9.23;;;;;;;;;;4997532;28;20042;-52
2023/03/12 00:12:03;;;;;;;10.00;9.20;;;;;;;;;;4997297;28;20038;-52
2023/03/12 00:14:29;;;;;;;9.65;8.95;;;;;;;;;;4996935;28;20146;-50
2023/03/12 00:16:54;;;;;;;9.70;9.10;;;;;;;;;;4997049;28;20067;-53
2023/03/12 00:19:20;;;;;;;9.40;8.80;;;;;;;;;;4996516;28;20030;-52
2023/03/12 00:21:45;;;;;;;11.45;10.40;;;;;;;;;;5003527;28;20625;-49
2023/03/12 00:24:10;;;;;;;9.20;8.60;;;;;;;;;;4995392;28;20042;-49
2023/03/12 00:26:36;;;;;;;9.55;8.95;;;;;;;;;;4994725;28;20089;-49
2023/03/12 00:29:01;;;;;;;9.13;8.52;;;;;;;;;;4993959;28;20034;-51
2023/03/12 00:31:31;;;;;;;8.35;7.85;;;;;;;;;;4995327;28;20065;-52
2023/03/12 00:33:57;;;;;;;8.68;8.10;;;;;;;;;;4996544;28;20437;-52
2023/03/12 00:36:25;;;;;;;17.10;9.40;;;;;;;;;;4996905;28;20509;-49
2023/03/12 00:38:51;;;;;;;10.60;9.90;;;;;;;;;;4999652;28;20049;-49
2023/03/12 00:41:18;;;;;;;10.85;10.15;;;;;;;;;;4999188;28;20042;-49
2023/03/12 00:43:47;;;;;;;9.80;9.20;;;;;;;;;;4998152;28;20511;-50
2023/03/12 00:46:12;;;;;;;9.90;9.20;;;;;;;;;;4999201;28;20026;-52
2023/03/12 00:48:38;;;;;;;9.38;8.77;;;;;;;;;;4993540;28;20139;-51
2023/03/12 00:51:04;;;;;;;9.25;8.65;;;;;;;;;;4998024;28;20034;-50
2023/03/12 00:53:29;;;;;;;10.02;9.43;;;;;;;;;;4998494;28;20033;-53
2023/03/12 00:55:55;;;;;;;9.20;8.60;;;;;;;;;;4996584;28;20095;-52
2023/03/12 00:58:20;;;;;;;9.75;9.05;;;;;;;;;;4997058;28;20030;-51
2023/03/12 01:00:45;;;;;;;8.88;8.27;;;;;;;;;;4995743;28;20042;-50
2023/03/12 01:03:11;;;;;;;9.32;8.73;;;;;;;;;;4995084;28;20053;-48
2023/03/12 01:05:36;;;;;;;10.65;9.80;;;;;;;;;;4993304;28;20063;-51
2023/03/12 01:08:06;;;;;;;9.80;9.20;;;;;;;;;;4993901;28;20037;-51
2023/03/12 01:10:32;;;;;;;9.00;8.40;;;;;;;;;;4997925;28;20034;-51
2023/03/12 01:12:57;;;;;;;9.02;8.43;;;;;;;;;;4995610;28;20056;-52
2023/03/12 01:15:23;;;;;;;8.75;8.20;;;;;;;;;;4998570;28;20046;-48
2023/03/12 01:17:50;;;;;;;8.38;7.88;;;;;;;;;;4994533;28;20443;-51
2023/03/12 01:20:15;;;;;;;8.98;8.38;;;;;;;;;;4994255;28;20336;-50
2023/03/12 01:22:41;;;;;;;8.48;7.97;;;;;;;;;;4993581;28;20033;-52
2023/03/12 01:25:07;;;;;;;8.73;8.13;;;;;;;;;;4997303;28;20092;-51
2023/03/12 01:27:32;;;;;;;9.60;8.80;;;;;;;;;;4995902;28;20189;-48
2023/03/12 01:29:57;;;;;;;10.07;9.38;;;;;;;;;;4994525;28;20099;-49
2023/03/12 01:32:23;;;;;;;9.57;8.93;;;;;;;;;;4995940;28;20042;-48
2023/03/12 01:34:48;;;;;;;10.45;9.75;;;;;;;;;;4997554;28;20456;-50
2023/03/12 01:37:14;;;;;;;10.25;9.55;;;;;;;;;;4992459;28;20030;-52
2023/03/12 01:39:39;;;;;;;13.15;10.93;;;;;;;;;;4993269;28;20468;-50
2023/03/12 01:42:05;;;;;;;9.93;9.07;;;;;;;;;;4993250;28;20034;-50
2023/03/12 01:44:47;;;;;;;11.35;10.45;;;;;;;;;;4996503;28;20554;-49
2023/03/12 01:47:12;;;;;;;9.40;8.80;;;;;;;;;;4991522;28;20038;-49
2023/03/12 01:49:38;;;;;;;10.02;9.43;;;;;;;;;;4993722;28;20088;-50
2023/03/12 01:52:11;;;;;;;10.25;9.55;;;;;;;;;;4993874;28;20057;-50
2023/03/12 01:54:46;;;;;;;9.90;9.23;;;;;;;;;;4992657;28;20047;-50
2023/03/12 01:57:15;;;;;;;9.93;9.32;;;;;;;;;;4993146;28;20477;-49
2023/03/12 01:59:55;;;;;;;9.45;8.75;;;;;;;;;;4994120;28;20025;-50
2023/03/12 02:02:25;;;;;;;10.48;9.77;;;;;;;;;;4993763;28;20117;-50
2023/03/12 02:05:02;;;;;;;12.13;10.15;;;;;;;;;;4995271;28;20029;-50
2023/03/12 02:07:27;;;;;;;9.20;8.40;;;;;;;;;;4998508;28;20068;-48
2023/03/12 02:09:52;;;;;;;10.30;9.57;;;;;;;;;;4997036;28;20200;-49
2023/03/12 02:12:18;;;;;;;10.13;9.43;;;;;;;;;;4994088;28;20037;-51
2023/03/12 02:14:43;;;;;;;9.20;8.60;;;;;;;;;;4992972;28;20123;-48
2023/03/12 02:17:09;;;;;;;9.40;8.80;;;;;;;;;;4994537;28;20339;-48
2023/03/12 02:20:06;;;;;;;10.90;10.13;;;;;;;;;;4993187;28;20085;-49
2023/03/12 02:22:33;;;;;;;9.23;8.63;;;;;;;;;;5002088;28;20062;-52
2023/03/12 02:25:11;;;;;;;8.80;8.23;;;;;;;;;;4992333;28;20034;-49
2023/03/12 02:27:36;;;;;;;9.45;8.80;;;;;;;;;;4989708;28;20163;-50
2023/03/12 02:30:03;;;;;;;9.20;8.60;;;;;;;;;;4991969;28;20109;-49
2023/03/12 02:32:38;;;;;;;9.25;8.65;;;;;;;;;;4993781;28;20368;-51
2023/03/12 02:35:05;;;;;;;8.75;8.15;;;;;;;;;;4993053;28;20037;-50
2023/03/12 02:37:30;;;;;;;8.88;8.27;;;;;;;;;;4994863;28;20563;-48
2023/03/12 02:40:08;;;;;;;15.52;9.30;;;;;;;;;;4995779;28;20105;-50
2023/03/12 02:42:34;;;;;;;10.00;9.38;;;;;;;;;;4996193;28;20041;-51
2023/03/12 02:45:00;;;;;;;9.10;8.50;;;;;;;;;;4998696;28;20034;-50
2023/03/12 02:47:25;;;;;;;9.20;8.60;;;;;;;;;;4993946;28;20037;-50
2023/03/12 02:49:51;;;;;;;9.13;8.52;;;;;;;;;;4992918;28;20435;-50
2023/03/12 02:52:16;;;;;;;8.27;7.78;;;;;;;;;;4995874;28;20123;-52
2023/03/12 02:54:42;;;;;;;9.73;9.10;;;;;;;;;;4993868;28;20077;-50
2023/03/12 02:57:07;;;;;;;9.25;8.65;;;;;;;;;;4995103;28;20041;-52
2023/03/12 02:59:32;;;;;;;9.73;9.13;;;;;;;;;;4993998;28;20068;-53
2023/03/12 03:01:59;;;;;;;9.68;9.07;;;;;;;;;;4994959;28;20043;-50
2023/03/12 03:04:26;;;;;;;10.25;9.63;;;;;;;;;;4996517;28;20368;-52
2023/03/12 03:06:52;;;;;;;8.75;8.15;;;;;;;;;;4990863;28;20100;-52
2023/03/12 03:09:19;;;;;;;9.52;8.93;;;;;;;;;;4991799;28;20029;-52
2023/03/12 03:11:45;;;;;;;8.60;8.07;;;;;;;;;;4991826;28;20748;-52
2023/03/12 03:14:10;;;;;;;9.63;9.02;;;;;;;;;;4991269;28;20040;-50
2023/03/12 03:16:35;;;;;;;8.75;8.15;;;;;;;;;;4996599;28;20688;-51
2023/03/12 03:19:01;;;;;;;10.77;9.98;;;;;;;;;;4992312;28;20038;-51
2023/03/12 03:21:26;;;;;;;9.77;9.15;;;;;;;;;;4993719;28;20039;-53
2023/03/12 03:23:52;;;;;;;10.80;10.10;;;;;;;;;;4994622;28;20061;-49
2023/03/12 03:26:21;;;;;;;9.57;8.93;;;;;;;;;;4996389;28;20061;-50
2023/03/12 03:28:47;;;;;;;8.88;8.27;;;;;;;;;;4991290;28;20529;-50
2023/03/12 03:31:12;;;;;;;8.55;7.97;;;;;;;;;;4991835;28;20034;-52
2023/03/12 03:33:38;;;;;;;8.93;8.32;;;;;;;;;;4993835;28;20428;-52
2023/03/12 03:36:05;;;;;;;9.40;8.70;;;;;;;;;;4993032;28;20042;-51
2023/03/12 03:38:31;;;;;;;9.70;9.10;;;;;;;;;;4996700;28;20025;-51
2023/03/12 03:40:57;;;;;;;9.00;8.38;;;;;;;;;;4997887;28;20046;-51
2023/03/12 03:43:23;;;;;;;9.00;8.40;;;;;;;;;;4998601;28;20041;-53
2023/03/12 03:45:56;;;;;;;9.18;8.57;;;;;;;;;;5000952;28;20566;-54
2023/03/12 03:48:21;;;;;;;9.60;9.00;;;;;;;;;;5000134;28;20105;-51
2023/03/12 03:50:47;;;;;;;8.77;8.18;;;;;;;;;;4997957;28;20120;-51
2023/03/12 03:53:12;;;;;;;9.63;8.95;;;;;;;;;;5000307;28;20081;-51
2023/03/12 03:55:39;;;;;;;9.02;8.43;;;;;;;;;;4996839;28;20034;-52
2023/03/12 03:58:05;;;;;;;10.25;9.30;;;;;;;;;;4996467;28;20042;-53
2023/03/12 04:00:31;;;;;;;8.68;8.07;;;;;;;;;;4992845;28;20037;-54
2023/03/12 04:02:57;;;;;;;8.40;7.90;;;;;;;;;;4996798;28;20471;-53
2023/03/12 04:05:23;;;;;;;9.00;8.40;;;;;;;;;;4999814;28;20038;-54
2023/03/12 04:07:51;;;;;;;8.30;7.80;;;;;;;;;;4994440;28;20495;-50
2023/03/12 04:10:19;;;;;;;9.50;8.90;;;;;;;;;;4998275;28;20042;-49
2023/03/12 04:12:44;;;;;;;8.15;7.65;;;;;;;;;;4995767;28;20077;-48
2023/03/12 04:15:10;;;;;;;8.73;8.13;;;;;;;;;;4998957;28;20065;-52
2023/03/12 04:17:35;;;;;;;9.70;9.10;;;;;;;;;;4997946;28;20065;-52
2023/03/12 04:20:00;;;;;;;8.95;8.35;;;;;;;;;;4996456;28;20053;-52
2023/03/12 04:22:26;;;;;;;8.85;8.25;;;;;;;;;;4995358;28;20037;-50
2023/03/12 04:24:51;;;;;;;8.27;7.78;;;;;;;;;;4993423;28;20046;-49
2023/03/12 04:27:16;;;;;;;8.98;8.20;;;;;;;;;;4992637;28;20034;-51
2023/03/12 04:29:42;;;;;;;7.70;7.20;;;;;;;;;;4996648;28;20471;-49
2023/03/12 04:32:07;;;;;;;8.52;7.93;;;;;;;;;;4999056;28;20743;-49
2023/03/12 04:34:32;;;;;;;8.98;8.38;;;;;;;;;;4997154;28;20030;-49
2023/03/12 04:37:00;;;;;;;9.52;8.93;;;;;;;;;;4997482;28;20504;-51
2023/03/12 04:39:26;;;;;;;8.75;8.15;;;;;;;;;;4997561;28;20356;-50
2023/03/12 04:41:51;;;;;;;9.18;8.57;;;;;;;;;;4996030;28;20116;-49
2023/03/12 04:44:16;;;;;;;8.32;7.82;;;;;;;;;;4994607;28;20049;-50
2023/03/12 04:46:42;;;;;;;9.05;8.45;;;;;;;;;;4998065;28;20053;-52
2023/03/12 04:49:07;;;;;;;9.25;8.55;;;;;;;;;;4996366;28;20138;-50
2023/03/12 04:51:33;;;;;;;9.70;9.00;;;;;;;;;;4995312;28;20044;-50
2023/03/12 04:53:58;;;;;;;8.68;8.07;;;;;;;;;;4994813;28;20034;-50
2023/03/12 04:56:23;;;;;;;9.05;8.45;;;;;;;;;;4993507;28;20069;-49
2023/03/12 04:58:50;;;;;;;9.65;9.05;;;;;;;;;;4990143;28;20117;-51
2023/03/12 05:01:29;;;;;;;9.38;8.65;;;;;;;;;;4994792;28;20042;-52
2023/03/12 05:03:55;;;;;;;9.45;8.85;;;;;;;;;;4999038;28;20038;-51
2023/03/12 05:06:21;;;;;;;8.80;8.20;;;;;;;;;;4995642;28;20100;-51
2023/03/12 05:08:47;;;;;;;9.10;8.50;;;;;;;;;;4991318;28;20046;-49
2023/03/12 05:11:14;;;;;;;8.77;8.18;;;;;;;;;;4995750;28;20046;-52
2023/03/12 05:13:39;;;;;;;9.35;8.75;;;;;;;;;;4990274;28;20497;-52
2023/03/12 05:16:05;;;;;;;8.68;8.07;;;;;;;;;;4995920;28;20045;-48
2023/03/12 05:18:31;;;;;;;9.50;8.90;;;;;;;;;;4996378;28;20369;-51
2023/03/12 05:21:02;;;;;;;10.07;9.32;;;;;;;;;;4997240;28;20037;-52
2023/03/12 05:23:28;;;;;;;8.70;8.10;;;;;;;;;;4995358;28;20539;-50
2023/03/12 05:25:54;;;;;;;10.23;9.52;;;;;;;;;;4992873;28;20034;-51
2023/03/12 05:28:19;;;;;;;8.65;8.10;;;;;;;;;;5006718;28;20029;-51
2023/03/12 05:30:45;;;;;;;8.77;8.18;;;;;;;;;;4995669;28;20026;-52
2023/03/12 05:33:11;;;;;;;9.65;8.95;;;;;;;;;;4993341;28;20034;-52
2023/03/12 05:35:36;;;;;;;9.15;8.55;;;;;;;;;;4993683;28;20045;-51
2023/03/12 05:38:01;;;;;;;9.48;8.85;;;;;;;;;;4993934;28;20474;-49
2023/03/12 05:40:27;;;;;;;8.90;8.30;;;;;;;;;;4999335;28;20221;-52
2023/03/12 05:42:52;;;;;;;9.40;8.80;;;;;;;;;;4993093;28;20797;-50
2023/03/12 05:45:18;;;;;;;9.98;9.27;;;;;;;;;;4994468;28;20049;-52
2023/03/12 05:47:44;;;;;;;9.50;8.90;;;;;;;;;;4992246;28;20038;-52
2023/03/12 05:50:10;;;;;;;11.13;10.27;;;;;;;;;;4995730;28;20046;-52
2023/03/12 05:52:36;;;;;;;9.50;8.90;;;;;;;;;;4995028;28;20041;-51
2023/03/12 05:55:01;;;;;;;9.23;8.63;;;;;;;;;;4994690;28;20049;-49
2023/03/12 05:57:26;;;;;;;9.73;9.05;;;;;;;;;;4996888;28;20100;-53
2023/03/12 05:59:52;;;;;;;9.10;8.50;;;;;;;;;;4991711;28;20079;-52
2023/03/12 06:02:17;;;;;;;9.73;9.13;;;;;;;;;;4992523;28;20053;-52
2023/03/12 06:04:42;;;;;;;10.80;10.10;;;;;;;;;;5000095;28;20038;-50
2023/03/12 06:07:08;;;;;;;9.68;9.00;;;;;;;;;;4994127;28;20038;-50
2023/03/12 06:09:34;;;;;;;10.60;9.93;;;;;;;;;;4991475;28;20260;-53
2023/03/12 06:12:00;;;;;;;11.50;10.70;;;;;;;;;;4991748;28;20471;-54
2023/03/12 06:14:25;;;;;;;10.27;9.57;;;;;;;;;;4991747;28;20053;-52
2023/03/12 06:16:50;;;;;;;10.23;9.52;;;;;;;;;;4992551;28;20041;-52
2023/03/12 06:19:16;;;;;;;9.65;9.05;;;;;;;;;;4992188;28;20034;-51
2023/03/12 06:21:41;;;;;;;10.70;9.82;;;;;;;;;;4999129;28;20046;-50
2023/03/12 06:24:07;;;;;;;10.05;9.40;;;;;;;;;;4995218;28;20069;-52
2023/03/12 06:26:33;;;;;;;9.85;9.15;;;;;;;;;;4994808;28;20068;-51
2023/03/12 06:28:58;;;;;;;9.15;8.55;;;;;;;;;;4994924;28;20052;-52
2023/03/12 06:31:23;;;;;;;9.75;9.07;;;;;;;;;;5009162;28;20626;-49
2023/03/12 06:33:49;;;;;;;10.55;9.75;;;;;;;;;;5009167;28;20108;-51
2023/03/12 06:36:14;;;;;;;9.20;8.60;;;;;;;;;;4992277;28;20408;-51
2023/03/12 06:38:40;;;;;;;10.43;9.82;;;;;;;;;;4995057;28;20026;-52
2023/03/12 06:41:15;;;;;;;10.43;9.82;;;;;;;;;;4994040;28;20425;-50
2023/03/12 06:43:41;;;;;;;9.00;8.40;;;;;;;;;;4994855;28;20042;-49
2023/03/12 06:46:10;;;;;;;10.90;10.10;;;;;;;;;;4994662;28;20034;-50
2023/03/12 06:48:36;;;;;;;9.70;9.00;;;;;;;;;;4994556;28;20042;-51
2023/03/12 06:51:03;;;;;;;8.50;8.00;;;;;;;;;;4993732;28;20141;-49
2023/03/12 06:53:28;;;;;;;8.73;8.13;;;;;;;;;;4994788;28;20096;-51
2023/03/12 06:55:54;;;;;;;10.40;9.70;;;;;;;;;;4993525;28;20033;-51
2023/03/12 06:58:19;;;;;;;9.05;8.45;;;;;;;;;;4993634;28;20117;-50
2023/03/12 07:00:44;;;;;;;8.85;8.25;;;;;;;;;;4989030;28;20061;-53
2023/03/12 07:03:10;;;;;;;9.60;8.90;;;;;;;;;;4992251;28;20073;-51
2023/03/12 07:05:35;;;;;;;10.48;9.77;;;;;;;;;;4991389;28;20038;-53
2023/03/12 07:08:00;;;;;;;9.77;9.18;;;;;;;;;;4994171;28;20034;-54
2023/03/12 07:10:29;;;;;;;10.38;9.68;;;;;;;;;;4994472;28;20673;-53
2023/03/12 07:12:55;;;;;;;9.55;8.95;;;;;;;;;;4995868;28;20037;-51
2023/03/12 07:15:22;;;;;;;10.73;10.02;;;;;;;;;;4993548;28;20042;-52
2023/03/12 07:17:47;;;;;;;9.90;9.20;;;;;;;;;;5007552;28;20480;-51
2023/03/12 07:20:13;;;;;;;10.10;9.40;;;;;;;;;;4994769;28;20069;-52
2023/03/12 07:22:38;;;;;;;9.10;8.50;;;;;;;;;;4993231;28;20045;-52
2023/03/12 07:25:04;;;;;;;10.00;9.32;;;;;;;;;;4994857;28;20618;-53
2023/03/12 07:27:29;;;;;;;9.07;8.48;;;;;;;;;;4991456;28;20034;-53
2023/03/12 07:29:55;;;;;;;9.85;9.25;;;;;;;;;;4993068;28;20037;-50
2023/03/12 07:32:20;;;;;;;10.25;9.55;;;;;;;;;;4995367;28;20498;-53
2023/03/12 07:34:45;;;;;;;9.13;8.52;;;;;;;;;;4991887;28;20294;-53
2023/03/12 07:37:11;;;;;;;9.95;9.25;;;;;;;;;;4991418;28;20753;-53
2023/03/12 07:39:36;;;;;;;9.55;8.95;;;;;;;;;;4993041;28;20412;-54
2023/03/12 07:42:02;;;;;;;8.93;8.32;;;;;;;;;;4990514;28;20162;-51
2023/03/12 07:44:27;;;;;;;10.27;9.48;;;;;;;;;;4990734;28;20372;-52
2023/03/12 07:46:52;;;;;;;9.63;9.02;;;;;;;;;;4992013;28;20045;-53
2023/03/12 07:49:18;;;;;;;9.32;8.73;;;;;;;;;;4990712;28;20741;-54
2023/03/12 07:51:44;;;;;;;10.02;9.43;;;;;;;;;;4992591;28;20407;-54
2023/03/12 07:54:09;;;;;;;9.68;9.07;;;;;;;;;;4995023;28;20081;-55
2023/03/12 07:56:35;;;;;;;9.02;8.43;;;;;;;;;;4991936;28;20026;-54
2023/03/12 07:59:00;;;;;;;9.45;8.85;;;;;;;;;;4992116;28;20026;-53
2023/03/12 08:01:30;;;;;;;12.73;9.55;;;;;;;;;;4991766;28;20030;-54
2023/03/12 08:03:57;;;;;;;10.82;10.13;;;;;;;;;;4990736;28;20033;-53
2023/03/12 08:06:23;;;;;;;11.20;10.20;;;;;;;;;;4993783;28;20026;-52
2023/03/12 08:08:49;;;;;;;9.73;9.13;;;;;;;;;;4989894;28;20427;-55
2023/03/12 08:11:14;;;;;;;9.35;8.75;;;;;;;;;;4993351;28;20659;-52
2023/03/12 08:13:39;;;;;;;10.00;9.35;;;;;;;;;;4991845;28;20026;-51
2023/03/12 08:16:05;;;;;;;9.38;8.77;;;;;;;;;;4992801;28;20038;-53
2023/03/12 08:18:30;;;;;;;9.50;8.90;;;;;;;;;;4991989;28;20034;-52
2023/03/12 08:20:55;;;;;;;9.32;8.73;;;;;;;;;;4993012;28;20568;-53
2023/03/12 08:23:21;;;;;;;9.15;8.55;;;;;;;;;;4992001;28;20712;-52
2023/03/12 08:25:48;;;;;;;9.20;8.60;;;;;;;;;;4995073;28;20049;-48
2023/03/12 08:28:15;;;;;;;9.15;8.48;;;;;;;;;;4994682;28;20080;-52
2023/03/12 08:30:48;;;;;;;8.90;8.30;;;;;;;;;;4999459;28;20049;-50
2023/03/12 08:33:13;;;;;;;9.18;8.57;;;;;;;;;;5008148;28;20455;-49
2023/03/12 08:35:39;;;;;;;9.13;8.52;;;;;;;;;;4996194;28;20049;-52
2023/03/12 08:38:04;;;;;;;8.75;8.15;;;;;;;;;;4997555;28;20034;-52
2023/03/12 08:40:30;;;;;;;9.32;8.73;;;;;;;;;;4994476;28;20124;-51
2023/03/12 08:42:55;;;;;;;9.48;8.88;;;;;;;;;;4996177;28;20481;-49
2023/03/12 08:45:20;;;;;;;8.57;7.97;;;;;;;;;;4996822;28;20064;-49
2023/03/12 08:47:46;;;;;;;8.75;8.15;;;;;;;;;;4993303;28;20046;-51
2023/03/12 08:50:15;;;;;;;9.02;8.43;;;;;;;;;;4999107;28;20099;-50
2023/03/12 08:52:41;;;;;;;10.48;9.65;;;;;;;;;;4993980;28;20038;-50
2023/03/12 08:55:07;;;;;;;9.60;9.00;;;;;;;;;;4993093;28;20041;-52
2023/03/12 08:57:32;;;;;;;9.02;8.43;;;;;;;;;;4993344;28;20046;-52
2023/03/12 08:59:57;;;;;;;10.10;9.38;;;;;;;;;;5000876;28;20045;-52
2023/03/12 09:02:23;;;;;;;10.35;9.60;;;;;;;;;;4994424;28;20048;-53
2023/03/12 09:04:49;;;;;;;9.07;8.48;;;;;;;;;;4994233;28;20420;-53
2023/03/12 09:07:17;;;;;;;9.52;8.93;;;;;;;;;;4994792;28;20088;-52
2023/03/12 09:09:43;;;;;;;10.07;9.27;;;;;;;;;;4993473;28;20061;-53
2023/03/12 09:12:09;;;;;;;10.55;9.60;;;;;;;;;;4996537;28;20072;-52
2023/03/12 09:14:34;;;;;;;9.20;8.60;;;;;;;;;;4992749;28;20479;-51
2023/03/12 09:17:00;;;;;;;9.40;8.80;;;;;;;;;;4991756;28;20041;-50
2023/03/12 09:19:26;;;;;;;10.00;9.38;;;;;;;;;;4995291;28;20038;-50
2023/03/12 09:21:51;;;;;;;9.63;9.02;;;;;;;;;;4998124;28;20045;-53
2023/03/12 09:24:17;;;;;;;9.68;9.05;;;;;;;;;;4995500;28;20521;-54
2023/03/12 09:26:42;;;;;;;11.63;10.63;;;;;;;;;;4996669;28;20480;-54
2023/03/12 09:29:07;;;;;;;10.55;9.85;;;;;;;;;;5011976;28;20030;-53
2023/03/12 09:31:33;;;;;;;9.70;9.00;;;;;;;;;;4994581;28;20046;-54
2023/03/12 09:33:58;;;;;;;10.07;9.38;;;;;;;;;;4993853;28;20033;-54
2023/03/12 09:36:24;;;;;;;10.77;9.98;;;;;;;;;;4994400;28;20125;-52
2023/03/12 09:38:49;;;;;;;9.75;9.15;;;;;;;;;;4995902;28;20065;-54
2023/03/12 09:41:27;;;;;;;9.75;9.15;;;;;;;;;;4995019;28;20065;-53
2023/03/12 09:44:13;;;;;;;10.27;9.57;;;;;;;;;;4997687;28;20124;-54
2023/03/12 09:46:52;;;;;;;10.95;10.25;;;;;;;;;;4993294;28;20150;-51
2023/03/12 09:49:36;;;;;;;12.32;11.43;;;;;;;;;;4995950;28;20030;-53
2023/03/12 09:52:25;;;;;;;11.30;10.48;;;;;;;;;;4995944;28;20053;-54
2023/03/12 09:55:14;;;;;;;12.80;10.88;;;;;;;;;;4987602;28;20131;-54
2023/03/12 09:57:40;;;;;;;11.40;10.60;;;;;;;;;;4992611;28;20046;-52
2023/03/12 10:00:12;;;;;;;11.68;10.90;;;;;;;;;;4997802;28;20040;-54
2023/03/12 10:03:05;;;;;;;10.88;10.18;;;;;;;;;;4993245;28;20045;-53
2023/03/12 10:06:02;;;;;;;11.10;10.40;;;;;;;;;;4990778;28;20037;-55
2023/03/12 10:08:52;;;;;;;12.73;11.82;;;;;;;;;;4992385;28;20050;-54
2023/03/12 10:11:21;;;;;;;11.95;11.18;;;;;;;;;;4994513;28;20039;-54
2023/03/12 10:13:55;;;;;;;12.35;11.45;;;;;;;;;;4991460;28;20041;-55
2023/03/12 10:16:52;;;;;;;12.02;11.13;;;;;;;;;;4994547;28;20476;-55
2023/03/12 10:19:29;;;;;;;10.57;9.88;;;;;;;;;;5007095;28;20037;-56
2023/03/12 10:22:03;;;;;;;11.68;10.98;;;;;;;;;;4992900;28;20587;-54
2023/03/12 10:24:40;;;;;;;11.02;10.35;;;;;;;;;;4992558;28;20049;-54
2023/03/12 10:27:14;;;;;;;12.15;11.35;;;;;;;;;;4993092;28;20049;-53
2023/03/12 10:29:43;;;;;;;11.88;11.07;;;;;;;;;;4993727;28;20493;-55
2023/03/12 10:32:17;;;;;;;12.20;11.40;;;;;;;;;;4993340;28;20046;-55
2023/03/12 10:34:50;;;;;;;10.85;10.15;;;;;;;;;;4994989;28;20038;-55
2023/03/12 10:37:42;;;;;;;12.73;11.73;;;;;;;;;;4996326;28;20068;-56
2023/03/12 10:40:33;;;;;;;13.13;12.30;;;;;;;;;;4992293;28;20034;-54
2023/03/12 10:42:59;;;;;;;13.95;12.95;;;;;;;;;;4988703;28;20046;-54
2023/03/12 10:45:31;;;;;;;12.88;12.00;;;;;;;;;;4989609;28;20034;-55
2023/03/12 10:48:01;;;;;;;13.55;12.65;;;;;;;;;;4988571;28;20053;-53
2023/03/12 10:50:29;;;;;;;12.17;11.30;;;;;;;;;;4992372;28;20757;-54
2023/03/12 10:53:21;;;;;;;11.13;10.23;;;;;;;;;;4992902;28;20084;-55
2023/03/12 10:55:59;;;;;;;11.38;10.38;;;;;;;;;;4992170;28;20031;-52
2023/03/12 10:58:25;;;;;;;12.13;10.95;;;;;;;;;;4990120;28;20076;-53
2023/03/12 11:00:56;;;;;;;11.50;10.80;;;;;;;;;;4991224;28;20037;-53
2023/03/12 11:03:21;;;;;;;;;;;;;;;;;;4994987;28;20033;-54
2023/03/12 11:05:50;;;;;;;12.10;10.98;;;;;;;;;;4993972;28;19948;-54
2023/03/12 11:08:20;;;;;;;11.65;10.93;;;;;;;;;;4995070;28;20125;-54
2023/03/12 11:10:46;;;;;;;11.73;10.93;;;;;;;;;;5000906;28;20102;-53
2023/03/12 11:13:33;;;;;;;12.30;11.50;;;;;;;;;;4992458;28;20088;-50
2023/03/12 11:16:23;;;;;;;11.98;11.23;;;;;;;;;;4989586;28;20035;-52
2023/03/12 11:18:56;;;;;;;13.43;11.73;;;;;;;;;;4992571;28;20034;-51
2023/03/12 11:21:22;;;;;;;12.73;11.82;;;;;;;;;;4993577;28;20080;-54
2023/03/12 11:23:56;;;;;;;11.95;11.25;;;;;;;;;;4995438;28;20426;-50
2023/03/12 11:26:23;;;;;;;14.63;13.43;;;;;;;;;;4993395;28;20045;-51
2023/03/12 11:28:54;;;;;;;14.02;13.02;;;;;;;;;;4993462;28;20575;-53
2023/03/12 11:31:42;;;;;;;12.23;11.43;;;;;;;;;;4992023;28;20034;-51
2023/03/12 11:34:23;;;;;;;12.50;11.70;;;;;;;;;;4995476;28;20629;-52
2023/03/12 11:37:00;;;;;;;12.60;11.80;;;;;;;;;;4995443;28;20042;-53
2023/03/12 11:40:11;;;;;;;13.35;12.45;;;;;;;;;;4993528;28;20101;-51
2023/03/12 11:42:56;;;;;;;11.25;10.55;;;;;;;;;;4992990;28;20491;-54
2023/03/12 11:45:37;;;;;;;13.13;12.25;;;;;;;;;;4996360;28;20129;-52
2023/03/12 11:48:22;;;;;;;;;;;;;;;;;;4994226;28;20040;-54
2023/03/12 11:50:56;;;;;;;14.27;13.10;;;;;;;;;;4994704;28;20260;-55
2023/03/12 11:53:38;;;;;;;12.70;11.90;;;;;;;;;;4994092;28;20061;-53
2023/03/12 11:56:29;;;;;;;11.75;10.95;;;;;;;;;;5008017;28;20049;-50
2023/03/12 11:59:00;;;;;;;12.20;11.40;;;;;;;;;;4997929;28;20026;-54
2023/03/12 12:01:25;;;;;;;;;;;;;;;;;;4998894;28;20050;-55
2023/03/12 12:04:22;;;;;;;11.25;10.55;;;;;;;;;;4996870;28;19928;-54
2023/03/12 12:06:59;;;;;;;12.55;11.75;;;;;;;;;;4997747;28;20042;-55
2023/03/12 12:09:33;;;;;;;14.10;12.98;;;;;;;;;;4997967;28;20053;-54
2023/03/12 12:12:05;;;;;;;11.85;11.15;;;;;;;;;;4995832;28;20041;-55
2023/03/12 12:14:30;;;;;;;;;;;;;;;;;;4998222;28;20037;-54
2023/03/12 12:17:14;;;;;;;12.40;11.60;;;;;;;;;;4998439;28;20319;-54
2023/03/12 12:19:51;;;;;;;12.55;11.55;;;;;;;;;;4995077;28;20042;-54
2023/03/12 12:22:19;;;;;;;11.57;10.77;;;;;;;;;;4995850;28;20045;-54
2023/03/12 12:25:22;;;;;;;12.18;11.38;;;;;;;;;;4995590;28;20125;-54
2023/03/12 12:27:56;;;;;;;12.48;11.68;;;;;;;;;;4993704;28;20041;-54
2023/03/12 12:30:34;;;;;;;11.52;10.73;;;;;;;;;;4995616;28;20037;-54
2023/03/12 12:33:10;;;;;;;11.75;10.95;;;;;;;;;;5001763;28;20058;-55
2023/03/12 12:35:38;;;;;;;11.30;10.60;;;;;;;;;;4998545;28;20041;-54
2023/03/12 12:38:19;;;;;;;11.35;10.65;;;;;;;;;;4996503;28;20038;-54
2023/03/12 12:40:55;;;;;;;11.63;10.93;;;;;;;;;;4997234;28;20034;-56
2023/03/12 12:43:36;;;;;;;13.07;12.18;;;;;;;;;;4996003;28;20041;-56
2023/03/12 12:46:10;;;;;;;12.02;11.30;;;;;;;;;;5002941;28;20072;-55
2023/03/12 12:48:41;;;;;;;11.80;11.00;;;;;;;;;;5007904;28;21038;-56
2023/03/12 12:51:08;;;;;;;11.45;10.75;;;;;;;;;;4995597;28;20080;-54
2023/03/12 12:53:49;;;;;;;12.15;11.35;;;;;;;;;;4994584;28;20045;-55
2023/03/12 12:56:52;;;;;;;12.23;11.10;;;;;;;;;;4996047;28;20380;-55
2023/03/12 12:59:57;;;;;;;11.88;11.07;;;;;;;;;;4995151;28;20517;-54
2023/03/12 13:02:28;;;;;;;11.80;11.10;;;;;;;;;;4992527;28;20483;-55
2023/03/12 13:04:57;;;;;;;12.57;11.68;;;;;;;;;;4994718;28;20419;-55
2023/03/12 13:07:22;;;;;;;12.25;11.45;;;;;;;;;;4994614;28;20121;-56
2023/03/12 13:09:56;;;;;;;12.02;11.23;;;;;;;;;;4993436;28;20128;-55
2023/03/12 13:12:29;;;;;;;12.13;11.32;;;;;;;;;;4995781;28;20029;-55
2023/03/12 13:14:56;;;;;;;12.93;12.02;;;;;;;;;;4994210;28;20034;-55
2023/03/12 13:17:24;;;;;;;12.27;11.45;;;;;;;;;;4997155;28;20076;-56
2023/03/12 13:19:51;;;;;;;12.13;11.32;;;;;;;;;;4996827;28;20030;-56
2023/03/12 13:22:33;;;;;;;12.52;11.63;;;;;;;;;;4999079;28;20475;-55
2023/03/12 13:25:17;;;;;;;12.02;11.23;;;;;;;;;;4993643;28;20507;-56
2023/03/12 13:27:44;;;;;;;11.63;10.73;;;;;;;;;;4997376;28;20774;-56
2023/03/12 13:30:32;;;;;;;11.10;10.40;;;;;;;;;;5000371;28;20033;-56
2023/03/12 13:32:57;;;;;;;11.32;10.40;;;;;;;;;;4991991;28;20158;-56
2023/03/12 13:35:22;;;;;;;12.07;11.25;;;;;;;;;;4996867;28;20041;-59
2023/03/12 13:37:51;;;;;;;11.50;10.80;;;;;;;;;;4995420;28;20483;-59
2023/03/12 13:40:28;;;;;;;12.50;11.60;;;;;;;;;;4994927;28;20042;-58
2023/03/12 13:43:30;;;;;;;12.88;12.07;;;;;;;;;;4995303;28;20093;-57
2023/03/12 13:46:00;;;;;;;12.05;11.25;;;;;;;;;;4979890;28;20620;-57
2023/03/12 13:48:26;;;;;;;13.38;12.48;;;;;;;;;;4995660;28;20623;-58
2023/03/12 13:50:58;;;;;;;13.80;12.90;;;;;;;;;;4995174;28;20099;-59
2023/03/12 13:53:31;;;;;;;13.23;12.38;;;;;;;;;;5011419;28;20030;-59
2023/03/12 13:56:10;;;;;;;13.65;12.85;;;;;;;;;;4992010;28;20666;-58
2023/03/12 13:59:03;;;;;;;14.27;13.15;;;;;;;;;;4990990;28;20045;-58
2023/03/12 14:01:40;;;;;;;14.23;13.30;;;;;;;;;;4992333;28;20042;-59
2023/03/12 14:04:33;;;;;;;11.77;11.07;;;;;;;;;;4992672;28;20346;-58
2023/03/12 14:07:32;;;;;;;12.93;12.13;;;;;;;;;;4991466;28;20053;-58
2023/03/12 14:10:42;;;;;;;12.05;11.25;;;;;;;;;;4994368;28;20043;-59
2023/03/12 14:13:32;;;;;;;12.15;11.45;;;;;;;;;;4974216;28;20033;-59
2023/03/12 14:16:05;;;;;;;12.40;11.40;;;;;;;;;;4995645;28;20062;-59
2023/03/12 14:18:34;;;;;;;12.00;11.20;;;;;;;;;;4993008;28;20277;-59
2023/03/12 14:21:05;;;;;;;12.70;11.90;;;;;;;;;;4993901;28;20030;-58
2023/03/12 14:23:38;;;;;;;11.77;11.05;;;;;;;;;;4996139;28;20034;-59
2023/03/12 14:26:05;;;;;;;11.75;10.95;;;;;;;;;;4993664;28;20514;-59
2023/03/12 14:28:37;;;;;;;13.23;12.32;;;;;;;;;;5010002;28;20026;-59
2023/03/12 14:31:19;;;;;;;11.52;10.82;;;;;;;;;;4995547;28;20042;-58
2023/03/12 14:34:06;;;;;;;11.73;11.02;;;;;;;;;;4994051;28;20377;-60
2023/03/12 14:36:40;;;;;;;12.93;12.13;;;;;;;;;;4994043;28;20033;-58
2023/03/12 14:39:22;;;;;;;12.57;11.68;;;;;;;;;;5008901;28;20046;-60
2023/03/12 14:41:57;;;;;;;13.63;12.65;;;;;;;;;;4995261;28;20133;-59
2023/03/12 14:44:25;;;;;;;11.73;11.02;;;;;;;;;;4995948;28;20022;-58
2023/03/12 14:47:01;;;;;;;13.50;12.50;;;;;;;;;;4993497;28;20058;-58
2023/03/12 14:49:28;;;;;;;13.23;12.43;;;;;;;;;;4993295;28;20058;-59
2023/03/12 14:51:54;;;;;;;12.35;11.45;;;;;;;;;;4997375;28;20049;-58